This is the latest recevied weather packets stored in our database for station/object OK1VCF-5. If no packets are shown the sender has not sent any weather packets the latest 1 day(s).
| Time | Temp. | Humidity | Pressure | Rain* | Wind** | Luminosity | Snow |
|---|---|---|---|---|---|---|---|
| 1778085080 | 20° C | 58% | 1007.9 hPa | - | - | - | - |
| 1778081477 | 20° C | 59% | 1008.6 hPa | - | - | - | - |
| 1778078773 | 20° C | 54% | 1008.6 hPa | - | - | - | - |
| 1778076973 | 22.22° C | 52% | 1007.8 hPa | - | - | - | - |
| 1778075170 | 24.44° C | 41% | 1008.3 hPa | - | - | - | - |
| 1778072469 | 23.33° C | 44% | 1009 hPa | - | - | - | - |
| 1778071569 | 25° C | 40% | 1009 hPa | - | - | - | - |
| 1778067966 | 23.33° C | 42% | 1010.2 hPa | - | - | - | - |
| 1778065263 | 23.33° C | 46% | 1010.8 hPa | - | - | - | - |
| 1778064362 | 23.33° C | 48% | 1010.8 hPa | - | - | - | - |
| 1778060759 | 22.22° C | 52% | 1011.1 hPa | - | - | - | - |
| 1778060211 | 21.11° C | 54% | 1011.3 hPa | - | - | - | - |
| 1778059858 | 21.11° C | 54% | 1011.3 hPa | - | - | - | - |
| 1778058957 | 21.11° C | 55% | 1011.4 hPa | - | - | - | - |
| 1778058057 | 19.44° C | 61% | 1011.4 hPa | - | - | - | - |
| 1778057156 | 18.89° C | 63% | 1011.5 hPa | - | - | - | - |
| 1778056257 | 21.11° C | 60% | 1011.4 hPa | - | - | - | - |
| 1778055353 | 18.89° C | 60% | 1011.5 hPa | - | - | - | - |
| 1778052653 | 18.89° C | 66% | 1011.7 hPa | - | - | - | - |
| 1778051751 | 17.78° C | 72% | 1011.7 hPa | - | - | - | - |
| 1778050849 | 17.22° C | 73% | 1011.9 hPa | - | - | - | - |
| 1778047248 | 14.44° C | 84% | 1011.8 hPa | - | - | - | - |
| 1778045446 | 13.33° C | 86% | 1011.6 hPa | - | - | - | - |
| 1778043643 | 13.33° C | 88% | 1011.7 hPa | - | - | - | - |
| 1778042742 | 12.22° C | 94% | 1012 hPa | - | - | - | - |
* Rain since midnight (hover to see other rain measurements)
** Current wind speed in m/s (hover to see current wind gust speed)